Time;durP1;ratioP1;P1;durP2;ratioP2;P2;SDS_P1;SDS_P2;PMS_P1;PMS_P2;Temp;Humidity;BMP_temperature;BMP_pressure;BME280_temperature;BME280_humidity;BME280_pressure;Samples;Min_cycle;Max_cycle;Signal;HPM_P1;HPM_P2
2023/06/15 00:00:48;;;;;;;0.70;0.60;;;;;;;30.71;30.26;101759.13;5006380;28;96707;-72
2023/06/15 00:03:17;;;;;;;0.60;0.60;;;;;;;30.70;30.62;101754.66;5003107;28;96806;-71
2023/06/15 00:05:44;;;;;;;0.93;0.65;;;;;;;30.70;30.60;101746.34;5006311;28;96891;-72
2023/06/15 00:08:11;;;;;;;0.95;0.80;;;;;;;30.70;30.47;101758.28;5004673;28;96789;-72
2023/06/15 00:10:37;;;;;;;0.77;0.70;;;;;;;30.69;30.39;101756.56;5006819;28;98502;-72
2023/06/15 00:13:04;;;;;;;0.63;0.47;;;;;;;30.69;30.44;101747.41;5006406;28;97458;-72
2023/06/15 00:15:31;;;;;;;1.27;0.60;;;;;;;30.69;30.33;101753.78;5006293;28;96731;-71
2023/06/15 00:17:58;;;;;;;0.63;0.60;;;;;;;30.68;30.39;101746.56;5006841;28;97252;-72
2023/06/15 00:20:28;;;;;;;0.73;0.63;;;;;;;30.67;30.25;101754.03;5003232;28;96843;-72
2023/06/15 00:22:56;;;;;;;1.08;0.63;;;;;;;30.67;30.45;101759.56;5004831;28;98225;-72
2023/06/15 00:25:23;;;;;;;1.95;0.60;;;;;;;30.68;30.41;101757.63;5006627;28;96950;-72
2023/06/15 00:27:49;;;;;;;1.02;0.60;;;;;;;30.68;30.36;101754.88;5005354;28;97073;-72
2023/06/15 00:30:16;;;;;;;0.90;0.70;;;;;;;30.67;30.48;101753.16;5005869;28;98109;-72
2023/06/15 00:32:44;;;;;;;1.85;0.70;;;;;;;30.67;29.83;101755.94;5007351;28;100313;-72
2023/06/15 00:35:10;;;;;;;0.55;0.50;;;;;;;30.67;30.45;101761.47;5007796;28;96744;-72
2023/06/15 00:37:37;;;;;;;0.93;0.75;;;;;;;30.66;30.47;101759.78;5009996;28;97023;-72
2023/06/15 00:40:06;;;;;;;2.05;0.80;;;;;;;30.66;30.34;101768.09;4991184;28;98669;-72
2023/06/15 00:42:33;;;;;;;0.73;0.70;;;;;;;30.65;30.50;101772.78;5008514;28;97532;-72
2023/06/15 00:44:59;;;;;;;0.80;0.60;;;;;;;30.65;30.43;101766.41;5007128;28;96829;-72
2023/06/15 00:47:27;;;;;;;1.10;0.70;;;;;;;30.65;30.46;101766.41;5009264;28;96838;-72
2023/06/15 00:49:54;;;;;;;1.48;0.80;;;;;;;30.65;30.50;101766.41;5007830;28;96823;-72
2023/06/15 00:52:22;;;;;;;1.05;0.80;;;;;;;30.63;30.29;101769.38;5009157;28;96805;-72
2023/06/15 00:54:50;;;;;;;1.02;0.68;;;;;;;30.63;30.09;101772.16;5008852;28;98287;-72
2023/06/15 00:57:18;;;;;;;0.82;0.52;;;;;;;30.63;30.46;101772.16;5007757;28;97038;-72
2023/06/15 00:59:45;;;;;;;0.90;0.60;;;;;;;30.62;30.57;101767.69;5008992;28;96942;-72
2023/06/15 01:02:12;;;;;;;0.60;0.60;;;;;;;30.63;30.10;101771.31;5009159;28;97800;-72
2023/06/15 01:04:40;;;;;;;0.80;0.70;;;;;;;30.62;30.74;101773.22;5009052;28;96705;-72
2023/06/15 01:07:10;;;;;;;0.70;0.70;;;;;;;30.63;30.26;101772.16;5009567;28;96653;-72
2023/06/15 01:09:40;;;;;;;0.80;0.70;;;;;;;30.63;30.40;101774.09;5007766;28;96745;-72
2023/06/15 01:12:11;;;;;;;1.05;0.60;;;;;;;30.62;30.40;101769.59;5007093;28;98241;-72
2023/06/15 01:14:39;;;;;;;1.15;0.63;;;;;;;30.61;30.52;101777.06;5008779;28;98626;-72
2023/06/15 01:17:10;;;;;;;0.93;0.70;;;;;;;30.61;30.35;101771.53;5007922;28;96873;-73
2023/06/15 01:19:57;;;;;;;0.70;0.60;;;;;;;30.62;30.36;101778.78;5008471;28;96852;-72
2023/06/15 01:22:49;;;;;;;1.17;0.63;;;;;;;30.60;30.47;101772.59;5008580;28;97350;-72
2023/06/15 01:25:39;;;;;;;0.68;0.68;;;;;;;30.59;30.38;101770.03;5007355;28;96994;-72
2023/06/15 01:28:09;;;;;;;0.60;0.60;;;;;;;30.57;30.31;101773.00;5009550;28;96989;-73
2023/06/15 01:30:41;;;;;;;0.82;0.65;;;;;;;30.58;30.26;101771.94;5007814;28;97553;-73
2023/06/15 01:33:10;;;;;;;0.80;0.60;;;;;;;30.59;30.53;101781.13;4990735;28;100207;-72
2023/06/15 01:35:38;;;;;;;0.88;0.77;;;;;;;30.58;30.50;101780.25;5007840;28;97124;-72
2023/06/15 01:38:08;;;;;;;1.80;0.68;;;;;;;30.57;30.43;101781.31;5009208;28;96618;-72
2023/06/15 01:40:39;;;;;;;1.40;0.80;;;;;;;30.58;30.35;101785.81;5008027;28;97832;-72
2023/06/15 01:43:09;;;;;;;0.90;0.77;;;;;;;30.58;30.44;101783.03;4986278;28;98525;-72
2023/06/15 01:45:38;;;;;;;1.10;0.70;;;;;;;30.57;30.48;101784.09;5004855;28;98119;-72
2023/06/15 01:48:06;;;;;;;1.17;0.80;;;;;;;30.58;30.36;101784.94;5007267;28;97209;-72
2023/06/15 01:50:34;;;;;;;0.85;0.63;;;;;;;30.57;30.38;101780.47;5008205;28;97244;-72
2023/06/15 01:53:02;;;;;;;0.93;0.77;;;;;;;30.57;30.41;101778.56;5006958;28;97614;-72
2023/06/15 01:55:28;;;;;;;1.80;0.75;;;;;;;30.57;30.48;101781.31;5011811;28;96928;-72
2023/06/15 01:57:55;;;;;;;1.23;0.80;;;;;;;30.58;30.45;101782.19;5007035;28;96931;-72
2023/06/15 02:00:23;;;;;;;2.15;0.70;;;;;;;30.58;30.54;101782.19;5006250;28;96872;-73
2023/06/15 02:02:50;;;;;;;0.85;0.85;;;;;;;30.56;30.51;101784.31;5008301;28;97383;-72
2023/06/15 02:05:17;;;;;;;0.80;0.57;;;;;;;30.55;30.56;101777.91;5006149;28;96816;-72
2023/06/15 02:07:47;;;;;;;0.90;0.70;;;;;;;30.56;30.43;101778.78;5006742;28;96925;-72
2023/06/15 02:10:15;;;;;;;0.80;0.70;;;;;;;30.55;30.54;101777.06;5006379;28;98570;-72
2023/06/15 02:12:42;;;;;;;0.85;0.70;;;;;;;30.56;30.56;101781.53;5006146;28;98445;-72
2023/06/15 02:15:17;;;;;;;1.10;0.70;;;;;;;30.55;30.39;101777.06;5006509;28;96836;-72
2023/06/15 02:17:45;;;;;;;0.73;0.70;;;;;;;30.53;30.54;101774.50;5006760;28;96839;-72
2023/06/15 02:20:12;;;;;;;0.90;0.70;;;;;;;30.54;30.59;101776.22;5006490;28;99598;-72
2023/06/15 02:22:39;;;;;;;1.45;0.70;;;;;;;30.55;30.59;101771.53;5008008;28;97259;-72
2023/06/15 02:25:07;;;;;;;0.60;0.50;;;;;;;30.54;30.62;101780.91;5004995;28;96720;-72
2023/06/15 02:27:34;;;;;;;0.73;0.68;;;;;;;30.53;30.78;101781.97;5006553;28;96915;-72
2023/06/15 02:30:01;;;;;;;1.23;0.80;;;;;;;30.54;30.54;101776.22;5005955;28;97297;-72
2023/06/15 02:32:36;;;;;;;0.80;0.60;;;;;;;30.54;30.51;101784.53;5005858;28;96739;-72
2023/06/15 02:35:08;;;;;;;0.82;0.65;;;;;;;30.53;30.67;101791.16;4984352;28;97367;-72
2023/06/15 02:37:36;;;;;;;0.95;0.70;;;;;;;30.52;30.60;101785.81;5006030;28;96868;-72
2023/06/15 02:40:04;;;;;;;0.73;0.60;;;;;;;30.52;30.61;101794.13;5005103;28;97594;-72
2023/06/15 02:42:31;;;;;;;0.88;0.88;;;;;;;30.52;30.38;101786.69;5008227;28;97335;-72
2023/06/15 02:44:58;;;;;;;1.73;0.70;;;;;;;30.52;30.57;101788.59;5006325;28;97386;-72
2023/06/15 02:47:25;;;;;;;0.93;0.70;;;;;;;30.51;30.54;101796.06;5007704;28;97047;-72
2023/06/15 02:49:53;;;;;;;0.90;0.77;;;;;;;30.51;30.39;101798.84;5005024;28;98590;-72
2023/06/15 02:52:20;;;;;;;0.80;0.80;;;;;;;30.51;30.38;101797.97;5005354;28;98449;-72
2023/06/15 02:54:47;;;;;;;0.60;0.60;;;;;;;30.51;30.34;101797.97;4988700;28;96821;-72
2023/06/15 02:57:18;;;;;;;1.38;0.90;;;;;;;30.51;30.55;101795.22;5005720;28;96881;-72
2023/06/15 02:59:59;;;;;;;1.10;1.00;;;;;;;30.50;30.58;101799.91;5005827;28;98994;-72
2023/06/15 03:02:28;;;;;;;0.90;0.60;;;;;;;30.51;30.58;101798.84;5005913;28;98800;-72
2023/06/15 03:04:56;;;;;;;2.45;0.75;;;;;;;30.50;30.60;101799.91;5006731;28;96620;-72
2023/06/15 03:07:32;;;;;;;1.23;0.88;;;;;;;30.49;30.59;101795.44;5005786;28;96840;-72
2023/06/15 03:10:19;;;;;;;0.75;0.70;;;;;;;30.48;30.54;101798.41;4993801;28;97672;-72
2023/06/15 03:12:46;;;;;;;1.02;0.57;;;;;;;30.48;30.39;101793.72;5004484;28;96861;-72
2023/06/15 03:15:13;;;;;;;0.85;0.70;;;;;;;30.49;30.70;101792.66;5003359;28;97390;-72
2023/06/15 03:17:41;;;;;;;0.93;0.75;;;;;;;30.49;30.56;101797.34;5003932;28;96936;-72
2023/06/15 03:20:11;;;;;;;0.73;0.70;;;;;;;30.49;30.46;101797.34;5004298;28;100024;-72
2023/06/15 03:22:39;;;;;;;1.00;0.80;;;;;;;30.48;30.53;101796.50;4988983;28;97011;-72
2023/06/15 03:25:11;;;;;;;1.02;0.50;;;;;;;30.49;30.45;101794.56;5005837;28;96681;-72
2023/06/15 03:27:40;;;;;;;1.30;0.70;;;;;;;30.49;30.53;101800.13;5004810;28;98263;-72
2023/06/15 03:30:13;;;;;;;1.05;0.85;;;;;;;30.47;30.67;101803.09;5005312;28;96714;-72
2023/06/15 03:32:41;;;;;;;1.38;0.70;;;;;;;30.47;30.31;101802.22;5003242;28;98011;-72
2023/06/15 03:35:08;;;;;;;0.77;0.73;;;;;;;30.48;30.56;101803.97;4988970;28;96778;-72
2023/06/15 03:37:38;;;;;;;0.82;0.75;;;;;;;30.47;30.56;101803.09;5005638;28;96955;-73
2023/06/15 03:40:05;;;;;;;1.35;0.70;;;;;;;30.46;30.69;101804.16;5003580;28;98521;-72
2023/06/15 03:42:32;;;;;;;0.90;0.90;;;;;;;30.47;30.58;101803.09;5005662;28;97049;-73
2023/06/15 03:45:03;;;;;;;0.77;0.70;;;;;;;30.47;30.63;101799.44;5000448;28;96825;-72
2023/06/15 03:47:35;;;;;;;0.93;0.73;;;;;;;30.45;30.58;101798.81;4983540;28;96843;-72
2023/06/15 03:50:02;;;;;;;0.88;0.70;;;;;;;30.46;30.24;101801.38;5006309;28;97557;-72
2023/06/15 03:52:32;;;;;;;1.23;0.70;;;;;;;30.46;30.60;101806.06;4988613;28;97820;-72
2023/06/15 03:55:00;;;;;;;0.95;0.80;;;;;;;30.46;30.53;101800.53;4990502;28;96786;-72
2023/06/15 03:57:28;;;;;;;0.93;0.80;;;;;;;30.45;30.52;101804.34;5001654;28;98888;-72
2023/06/15 03:59:55;;;;;;;0.82;0.80;;;;;;;30.45;30.42;101807.97;5004674;28;99828;-72
2023/06/15 04:02:22;;;;;;;1.33;1.23;;;;;;;30.45;30.65;101805.22;5005096;28;97567;-72
2023/06/15 04:04:52;;;;;;;0.90;0.80;;;;;;;30.43;30.79;101812.91;5001820;28;98687;-72
2023/06/15 04:07:19;;;;;;;0.88;0.60;;;;;;;30.44;30.42;101805.44;4998343;28;96728;-72
2023/06/15 04:09:46;;;;;;;0.70;0.70;;;;;;;30.44;30.48;101810.97;5009099;28;98918;-72
2023/06/15 04:12:13;;;;;;;0.68;0.57;;;;;;;30.44;30.32;101813.75;5008622;28;96973;-72
2023/06/15 04:14:39;;;;;;;1.40;0.75;;;;;;;30.44;30.68;101814.59;4992036;28;96753;-72
2023/06/15 04:17:08;;;;;;;1.42;1.08;;;;;;;30.45;30.71;101815.44;5009210;28;96699;-72
2023/06/15 04:19:35;;;;;;;0.90;0.80;;;;;;;30.44;30.59;101811.81;5008649;28;100866;-72
2023/06/15 04:22:02;;;;;;;0.80;0.70;;;;;;;30.45;30.32;101815.44;5009571;28;96684;-72
2023/06/15 04:24:30;;;;;;;0.80;0.80;;;;;;;30.43;30.48;101815.66;4991825;28;97339;-72
2023/06/15 04:26:57;;;;;;;0.73;0.70;;;;;;;30.45;30.74;101823.75;5007125;28;96881;-72
2023/06/15 04:29:24;;;;;;;1.08;0.80;;;;;;;30.44;30.77;101820.16;5007177;28;99401;-72
2023/06/15 04:31:54;;;;;;;1.02;0.70;;;;;;;30.44;30.64;101817.38;5008099;28;100522;-72
2023/06/15 04:34:26;;;;;;;0.93;0.80;;;;;;;30.45;30.64;101823.75;5007790;28;97090;-72
2023/06/15 04:36:54;;;;;;;0.60;0.50;;;;;;;30.43;30.66;101820.34;5007935;28;97367;-72
2023/06/15 04:39:24;;;;;;;0.60;0.60;;;;;;;30.43;30.59;101823.97;5007560;28;99869;-72
2023/06/15 04:41:51;;;;;;;0.80;0.70;;;;;;;30.43;30.68;101828.69;5007590;28;96782;-72
2023/06/15 04:44:18;;;;;;;1.00;0.80;;;;;;;30.43;30.57;101831.44;5009191;28;96948;-72
2023/06/15 04:46:46;;;;;;;1.00;0.90;;;;;;;30.43;30.60;101835.06;4997195;28;97124;-72
2023/06/15 04:49:13;;;;;;;1.30;0.93;;;;;;;30.43;30.54;101823.13;5006739;28;100576;-72
2023/06/15 04:51:39;;;;;;;1.25;0.70;;;;;;;30.42;30.54;101830.59;5007413;28;100693;-72
2023/06/15 04:54:07;;;;;;;0.88;0.70;;;;;;;30.44;30.43;101833.16;5006869;28;96767;-72
2023/06/15 04:56:34;;;;;;;1.20;0.60;;;;;;;30.43;30.69;101835.06;5007713;28;97286;-72
2023/06/15 04:59:00;;;;;;;0.80;0.73;;;;;;;30.43;30.57;101832.28;5007301;28;97084;-71
2023/06/15 05:01:28;;;;;;;0.80;0.70;;;;;;;30.43;30.46;101839.75;5007077;28;99097;-72
2023/06/15 05:03:54;;;;;;;0.75;0.75;;;;;;;30.43;30.64;101837.00;5007859;28;97036;-72
2023/06/15 05:06:22;;;;;;;1.10;0.65;;;;;;;30.44;30.52;101838.69;5007434;28;97074;-72
2023/06/15 05:08:48;;;;;;;0.75;0.70;;;;;;;30.43;30.52;101834.22;5009019;28;97520;-72
2023/06/15 05:11:16;;;;;;;0.70;0.70;;;;;;;30.43;30.69;101835.06;5007397;28;99567;-72
2023/06/15 05:13:44;;;;;;;1.00;0.70;;;;;;;30.44;30.70;101839.53;5006796;28;96891;-72
2023/06/15 05:16:10;;;;;;;0.80;0.80;;;;;;;30.43;30.75;101839.75;5007434;28;97104;-72
2023/06/15 05:18:38;;;;;;;0.90;0.80;;;;;;;30.43;30.57;101845.31;5005812;28;99698;-72
2023/06/15 05:21:05;;;;;;;0.90;0.80;;;;;;;30.43;30.65;101846.16;5007574;28;97171;-72
2023/06/15 05:23:36;;;;;;;0.90;0.80;;;;;;;30.42;30.59;101843.59;5007637;28;97031;-71
2023/06/15 05:26:02;;;;;;;2.30;0.70;;;;;;;30.43;30.63;101842.53;5007511;28;96710;-72
2023/06/15 05:28:32;;;;;;;0.90;0.68;;;;;;;30.43;30.53;101845.31;5008904;28;97325;-72
2023/06/15 05:31:00;;;;;;;1.73;0.70;;;;;;;30.43;30.59;101839.75;5006826;28;97015;-72
2023/06/15 05:33:27;;;;;;;0.60;0.60;;;;;;;30.44;30.42;101838.69;5006979;28;96770;-72
2023/06/15 05:35:54;;;;;;;0.70;0.60;;;;;;;30.44;30.77;101845.09;5010164;28;96737;-72
2023/06/15 05:38:22;;;;;;;0.95;0.85;;;;;;;30.44;30.76;101847.00;5007385;28;97684;-72
2023/06/15 05:40:48;;;;;;;1.63;0.70;;;;;;;30.43;30.55;101843.38;5008426;28;96893;-72
2023/06/15 05:43:15;;;;;;;1.70;0.90;;;;;;;30.44;30.60;101845.09;5007126;28;96786;-72
2023/06/15 05:45:42;;;;;;;0.80;0.70;;;;;;;30.44;30.73;101847.00;5008375;28;97181;-71
2023/06/15 05:48:09;;;;;;;1.05;0.80;;;;;;;30.44;30.70;101847.84;5006724;28;99422;-72
2023/06/15 05:50:37;;;;;;;0.77;0.77;;;;;;;30.44;30.79;101852.56;5006594;28;99286;-72
2023/06/15 05:53:04;;;;;;;0.95;0.80;;;;;;;30.44;30.71;101860.88;5006508;28;96851;-71
2023/06/15 05:55:31;;;;;;;1.08;0.98;;;;;;;30.45;30.51;101859.81;5006178;28;96797;-71
2023/06/15 05:57:58;;;;;;;1.00;0.73;;;;;;;30.45;30.64;101859.81;5005217;28;98718;-72
2023/06/15 06:00:29;;;;;;;1.25;0.70;;;;;;;30.45;31.08;101866.19;5007166;28;97255;-72
2023/06/15 06:02:58;;;;;;;0.80;0.73;;;;;;;30.45;30.86;101851.47;5005865;28;96761;-72
2023/06/15 06:05:36;;;;;;;0.88;0.70;;;;;;;30.44;30.30;101856.19;5006624;28;96750;-72
2023/06/15 06:08:03;;;;;;;0.95;0.55;;;;;;;30.44;30.67;101856.19;5005445;28;97048;-72
2023/06/15 06:10:31;;;;;;;0.73;0.68;;;;;;;30.46;30.43;101858.72;5006569;28;97357;-71
2023/06/15 06:13:26;;;;;;;1.10;0.90;;;;;;;30.44;30.60;101856.19;5006051;28;98549;-72
2023/06/15 06:15:53;;;;;;;1.00;0.82;;;;;;;30.44;30.79;101850.63;5006382;28;97449;-72
2023/06/15 06:18:20;;;;;;;1.05;0.70;;;;;;;30.45;30.75;101855.09;5006413;28;100404;-72
2023/06/15 06:20:46;;;;;;;1.00;0.90;;;;;;;30.45;30.60;101849.56;4989706;28;100300;-72
2023/06/15 06:23:13;;;;;;;1.10;0.80;;;;;;;30.46;30.76;101850.41;5008934;28;97204;-72
2023/06/15 06:25:39;;;;;;;1.00;0.80;;;;;;;30.46;30.79;101855.97;5006905;28;97044;-72
2023/06/15 06:28:07;;;;;;;1.00;0.80;;;;;;;30.46;30.57;101851.28;5006202;28;97355;-71
2023/06/15 06:30:34;;;;;;;1.38;0.95;;;;;;;30.47;30.70;101850.22;5003880;28;98422;-72
2023/06/15 06:33:03;;;;;;;1.10;0.90;;;;;;;30.47;30.81;101857.66;5006946;28;96958;-71
2023/06/15 06:35:29;;;;;;;1.30;0.73;;;;;;;30.48;30.86;101856.63;5000484;28;96615;-72
2023/06/15 06:37:56;;;;;;;1.83;0.90;;;;;;;30.48;30.59;101859.41;4999747;28;100548;-72
2023/06/15 06:40:23;;;;;;;0.80;0.65;;;;;;;30.47;30.89;101858.56;5007708;28;97560;-72
2023/06/15 06:42:49;;;;;;;0.90;0.82;;;;;;;30.48;30.53;101860.25;5006574;28;97001;-72
2023/06/15 06:45:16;;;;;;;1.50;0.80;;;;;;;30.49;30.77;101861.09;5006390;28;96900;-72
2023/06/15 06:47:43;;;;;;;1.35;1.00;;;;;;;30.49;30.79;101859.19;5005738;28;97352;-72
2023/06/15 06:50:10;;;;;;;1.48;1.00;;;;;;;30.48;30.62;101864.94;5007006;28;98380;-72
2023/06/15 06:52:37;;;;;;;0.82;0.63;;;;;;;30.49;30.57;101866.66;5007190;28;97010;-72
2023/06/15 06:55:04;;;;;;;1.00;0.77;;;;;;;30.49;30.83;101864.72;5006609;28;96819;-72
2023/06/15 06:57:31;;;;;;;1.15;0.85;;;;;;;30.50;30.77;101868.34;5006861;28;96890;-72
2023/06/15 06:59:57;;;;;;;0.98;0.77;;;;;;;30.50;30.90;101868.34;5006071;28;96838;-72
2023/06/15 07:02:24;;;;;;;1.20;0.90;;;;;;;30.50;30.84;101865.59;5005341;28;97436;-72
2023/06/15 07:04:51;;;;;;;0.95;0.85;;;;;;;30.50;30.92;101869.22;5006324;28;96593;-72
2023/06/15 07:07:17;;;;;;;1.10;0.90;;;;;;;30.50;30.64;101868.34;5007353;28;97531;-72
2023/06/15 07:09:44;;;;;;;1.00;0.80;;;;;;;30.50;30.80;101862.81;5006635;28;97544;-72
2023/06/15 07:12:11;;;;;;;1.08;0.98;;;;;;;30.50;30.92;101868.34;5005766;28;96912;-72
2023/06/15 07:14:37;;;;;;;1.48;0.90;;;;;;;30.50;30.68;101871.97;5006792;28;96661;-72
2023/06/15 07:17:04;;;;;;;0.95;0.77;;;;;;;30.50;30.52;101873.91;4979455;28;97319;-72
2023/06/15 07:19:30;;;;;;;1.00;0.90;;;;;;;30.51;30.78;101870.06;5007252;28;98031;-72
2023/06/15 07:21:57;;;;;;;1.50;0.95;;;;;;;30.50;30.80;101866.44;5006104;28;96650;-72
2023/06/15 07:24:23;;;;;;;1.10;0.90;;;;;;;30.52;30.78;101871.75;5006709;28;97264;-72
2023/06/15 07:26:50;;;;;;;1.42;1.20;;;;;;;30.51;30.78;101865.38;5006448;28;96762;-72
2023/06/15 07:29:17;;;;;;;1.10;1.00;;;;;;;30.51;30.78;101870.06;5002330;28;97678;-72
2023/06/15 07:31:45;;;;;;;1.27;1.00;;;;;;;30.51;30.85;101873.69;5006178;28;97117;-72
2023/06/15 07:34:15;;;;;;;2.05;1.10;;;;;;;30.51;30.78;101868.13;5007022;28;96786;-72
2023/06/15 07:36:41;;;;;;;1.65;1.20;;;;;;;30.51;30.62;101872.84;5006520;28;96967;-72
2023/06/15 07:39:08;;;;;;;1.42;1.20;;;;;;;30.51;30.73;101867.28;5006433;28;97385;-72
2023/06/15 07:41:35;;;;;;;1.42;1.23;;;;;;;30.51;30.84;101867.28;5000714;28;96753;-72
2023/06/15 07:44:02;;;;;;;2.90;1.30;;;;;;;30.51;30.88;101867.28;5006677;28;96830;-72
2023/06/15 07:46:28;;;;;;;2.00;1.45;;;;;;;30.52;30.72;101869.00;5009290;28;97675;-72
2023/06/15 07:48:55;;;;;;;1.40;1.30;;;;;;;30.52;30.83;101866.22;5010640;28;97184;-72
2023/06/15 07:51:21;;;;;;;1.85;1.30;;;;;;;30.51;30.68;101861.75;5008895;28;96925;-72
2023/06/15 07:54:05;;;;;;;1.80;1.27;;;;;;;30.51;30.67;101870.91;5002665;28;96797;-72
2023/06/15 07:56:32;;;;;;;1.48;1.20;;;;;;;30.52;30.78;101861.53;5009250;28;97627;-72
2023/06/15 07:58:58;;;;;;;2.25;1.60;;;;;;;30.51;30.78;101870.91;5009012;28;96950;-72
2023/06/15 08:01:25;;;;;;;1.75;1.40;;;;;;;30.53;30.54;101876.25;5010371;28;97051;-72
2023/06/15 08:03:51;;;;;;;2.15;1.35;;;;;;;30.52;30.67;101866.22;5009801;28;96875;-72
2023/06/15 08:06:18;;;;;;;2.97;1.40;;;;;;;30.52;30.58;101872.63;5006146;28;99582;-72
2023/06/15 08:08:45;;;;;;;1.60;1.45;;;;;;;30.53;30.56;101876.25;5006841;28;97791;-72
2023/06/15 08:11:13;;;;;;;1.65;1.40;;;;;;;30.52;30.52;101866.22;5008792;28;96922;-72
2023/06/15 08:13:39;;;;;;;2.10;1.60;;;;;;;30.53;30.61;101873.47;5008330;28;96773;-72
2023/06/15 08:16:06;;;;;;;2.75;1.60;;;;;;;30.53;30.65;101867.91;5009386;28;98157;-72
2023/06/15 08:18:33;;;;;;;1.80;1.40;;;;;;;30.52;30.86;101866.22;5008848;28;97041;-72
2023/06/15 08:21:00;;;;;;;2.45;1.55;;;;;;;30.52;30.65;101858.75;5010200;28;97257;-71
2023/06/15 08:23:27;;;;;;;3.92;1.90;;;;;;;30.53;30.96;101862.38;5009466;28;97031;-72
2023/06/15 08:25:54;;;;;;;1.80;1.50;;;;;;;30.52;30.52;101864.28;5009373;28;97551;-71
2023/06/15 08:28:20;;;;;;;2.97;1.80;;;;;;;30.53;30.77;101862.38;5008329;28;97176;-72
2023/06/15 08:30:48;;;;;;;2.47;1.80;;;;;;;30.53;30.72;101865.16;4990962;28;96903;-72
2023/06/15 08:33:16;;;;;;;2.50;1.73;;;;;;;30.53;30.88;101862.38;5008235;28;96617;-72
2023/06/15 08:35:43;;;;;;;1.63;1.38;;;;;;;30.54;30.56;101864.09;4990608;28;99223;-72
2023/06/15 08:38:09;;;;;;;2.10;1.60;;;;;;;30.54;30.62;101864.09;5008032;28;97460;-71
2023/06/15 08:40:36;;;;;;;2.15;1.80;;;;;;;30.54;30.45;101861.31;5009602;28;97020;-72
2023/06/15 08:43:03;;;;;;;2.08;1.70;;;;;;;30.53;30.56;101859.59;5004914;28;97044;-72
2023/06/15 08:45:39;;;;;;;2.63;1.77;;;;;;;30.54;30.62;101864.94;5004716;28;97534;-72
2023/06/15 08:48:09;;;;;;;3.33;1.85;;;;;;;30.53;30.54;101866.00;5008979;28;96938;-72
2023/06/15 08:50:38;;;;;;;3.35;1.70;;;;;;;30.54;30.40;101867.72;5006813;28;96683;-71
2023/06/15 08:53:06;;;;;;;2.00;1.60;;;;;;;30.54;30.57;101856.63;5009126;28;97029;-71
2023/06/15 08:55:33;;;;;;;1.90;1.63;;;;;;;30.54;30.55;101864.09;5008296;28;97364;-71
2023/06/15 08:58:00;;;;;;;2.53;1.70;;;;;;;30.53;30.83;101854.06;5001653;28;96865;-71
2023/06/15 09:00:26;;;;;;;2.50;1.85;;;;;;;30.54;30.70;101858.53;5008392;28;96704;-71
2023/06/15 09:02:59;;;;;;;3.97;1.67;;;;;;;30.54;30.42;101856.63;5007629;28;97517;-72
2023/06/15 09:05:26;;;;;;;2.80;1.83;;;;;;;30.54;30.71;101850.22;5008565;28;97059;-72
2023/06/15 09:07:53;;;;;;;2.13;1.55;;;;;;;30.55;30.83;101860.25;5007691;28;97214;-71
2023/06/15 09:10:21;;;;;;;3.47;2.20;;;;;;;30.53;30.56;101857.69;5007635;28;96621;-72
2023/06/15 09:12:52;;;;;;;3.00;2.05;;;;;;;30.54;30.55;101859.38;5008922;28;97225;-72
2023/06/15 09:15:28;;;;;;;2.67;1.85;;;;;;;30.55;30.12;101852.78;5007373;28;96757;-72
2023/06/15 09:17:57;;;;;;;2.58;2.05;;;;;;;30.54;30.59;101859.38;5007613;28;98191;-71
2023/06/15 09:20:27;;;;;;;2.45;1.95;;;;;;;30.54;30.23;101859.38;5009189;28;96952;-71
2023/06/15 09:22:58;;;;;;;2.10;1.88;;;;;;;30.55;30.49;101857.47;4990740;28;96964;-72
2023/06/15 09:25:25;;;;;;;2.28;1.80;;;;;;;30.54;30.71;101850.22;5008046;28;96781;-71
2023/06/15 09:27:57;;;;;;;2.15;1.80;;;;;;;30.55;30.43;101847.22;5007184;28;97209;-72
2023/06/15 09:30:34;;;;;;;3.00;1.85;;;;;;;30.55;30.29;101855.53;5006271;28;97361;-72
2023/06/15 09:33:10;;;;;;;2.30;1.95;;;;;;;30.55;30.29;101854.69;5008916;28;97135;-71
2023/06/15 09:35:37;;;;;;;2.63;2.00;;;;;;;30.54;30.22;101853.84;5007601;28;98205;-72
2023/06/15 09:38:09;;;;;;;3.55;1.80;;;;;;;30.55;30.36;101852.78;5007074;28;97877;-71
2023/06/15 09:40:40;;;;;;;2.08;1.75;;;;;;;30.55;30.17;101850.00;5006802;28;97097;-72
2023/06/15 09:43:06;;;;;;;2.67;1.80;;;;;;;30.55;30.42;101850.00;5008384;28;96801;-71
2023/06/15 09:45:33;;;;;;;2.15;1.70;;;;;;;30.56;30.49;101850.84;5007122;28;100009;-71
2023/06/15 09:48:11;;;;;;;3.38;1.98;;;;;;;30.56;30.34;101848.94;5007514;28;97158;-72
2023/06/15 09:50:37;;;;;;;2.10;1.83;;;;;;;30.55;30.17;101844.47;5005346;28;96745;-72
2023/06/15 09:53:05;;;;;;;2.35;1.83;;;;;;;30.55;30.05;101850.00;5006770;28;96820;-71
2023/06/15 09:55:33;;;;;;;2.65;1.85;;;;;;;30.56;30.22;101848.09;5008280;28;97461;-72
2023/06/15 09:57:59;;;;;;;2.78;2.03;;;;;;;30.55;30.26;101841.69;5008337;28;96801;-71
2023/06/15 10:00:26;;;;;;;3.67;1.98;;;;;;;30.56;30.17;101842.53;5008826;28;96821;-72
2023/06/15 10:02:58;;;;;;;4.13;2.30;;;;;;;30.56;30.25;101842.53;5008666;28;96996;-71
2023/06/15 10:05:31;;;;;;;3.58;2.00;;;;;;;30.56;30.31;101846.16;4994909;28;97611;-72
2023/06/15 10:08:02;;;;;;;2.20;1.70;;;;;;;30.57;30.09;101847.88;5007022;28;98230;-72
2023/06/15 10:10:30;;;;;;;2.15;1.80;;;;;;;30.56;30.04;101840.63;5007881;28;96790;-72
2023/06/15 10:13:00;;;;;;;3.30;2.20;;;;;;;30.57;30.03;101842.31;5007941;28;97103;-72
2023/06/15 10:15:31;;;;;;;2.65;1.90;;;;;;;30.58;29.82;101848.72;5007423;28;96729;-72
2023/06/15 10:18:03;;;;;;;2.15;1.95;;;;;;;30.58;29.96;101848.72;5002760;28;99068;-72
2023/06/15 10:20:33;;;;;;;2.38;1.80;;;;;;;30.57;30.04;101847.88;5008335;28;96771;-71
2023/06/15 10:23:07;;;;;;;2.47;1.90;;;;;;;30.56;30.21;101846.16;5003987;28;97101;-71
2023/06/15 10:25:35;;;;;;;2.10;1.90;;;;;;;30.57;30.20;101845.09;5006336;28;98430;-72
2023/06/15 10:28:09;;;;;;;2.22;2.00;;;;;;;30.57;30.06;101856.19;5007818;28;97089;-72
2023/06/15 10:31:04;;;;;;;2.20;2.00;;;;;;;30.58;30.11;101849.56;5007651;28;96910;-72
2023/06/15 10:33:52;;;;;;;3.35;2.00;;;;;;;30.57;30.26;101835.91;4999864;28;96790;-72
2023/06/15 10:36:21;;;;;;;2.22;1.83;;;;;;;30.55;30.04;101849.16;5006296;28;97690;-72
2023/06/15 10:39:01;;;;;;;2.92;1.90;;;;;;;30.57;30.14;101841.47;5007551;28;97420;-72
2023/06/15 10:41:27;;;;;;;2.20;2.00;;;;;;;30.56;29.95;101839.75;4998058;28;96992;-72
2023/06/15 10:44:04;;;;;;;2.67;1.85;;;;;;;30.58;30.02;101840.41;5003402;28;96862;-72
2023/06/15 10:46:33;;;;;;;2.72;2.05;;;;;;;30.58;30.02;101843.16;5004844;28;97536;-71
2023/06/15 10:49:05;;;;;;;2.75;1.80;;;;;;;30.58;29.89;101835.72;5001922;28;97394;-71
2023/06/15 10:51:39;;;;;;;2.13;1.90;;;;;;;30.59;29.86;101833.81;5007067;28;96761;-71
2023/06/15 10:54:23;;;;;;;2.42;2.10;;;;;;;30.58;29.99;101827.38;5005212;28;97151;-72
2023/06/15 10:56:53;;;;;;;3.03;2.20;;;;;;;30.57;30.04;101835.91;5006189;28;96609;-71
2023/06/15 10:59:57;;;;;;;3.97;2.35;;;;;;;30.59;30.07;101828.28;5005247;28;97652;-71
2023/06/15 11:02:31;;;;;;;2.38;1.90;;;;;;;30.58;29.97;101832.09;4964919;28;97243;-71
2023/06/15 11:05:02;;;;;;;2.33;2.00;;;;;;;30.58;30.04;101834.84;5005500;28;96938;-71
2023/06/15 11:07:32;;;;;;;2.42;1.90;;;;;;;30.59;30.09;101831.03;4999606;28;97551;-71
2023/06/15 11:10:16;;;;;;;2.42;2.00;;;;;;;30.59;30.13;101837.44;5004700;28;96882;-71
2023/06/15 11:12:45;;;;;;;2.53;2.05;;;;;;;30.58;29.96;101832.09;5002697;28;96744;-71
2023/06/15 11:15:16;;;;;;;2.72;2.17;;;;;;;30.59;30.19;101840.22;5000250;28;97216;-71
2023/06/15 11:17:53;;;;;;;3.60;2.20;;;;;;;30.59;30.00;101833.81;5007574;28;96946;-72
2023/06/15 11:20:38;;;;;;;2.47;2.17;;;;;;;30.60;30.13;101833.59;5006599;28;97239;-71
2023/06/15 11:23:16;;;;;;;2.63;2.08;;;;;;;30.59;30.11;101823.56;5007617;28;96666;-71
2023/06/15 11:25:44;;;;;;;2.35;2.15;;;;;;;30.60;30.08;101829.97;5005413;28;96855;-71
2023/06/15 11:28:15;;;;;;;3.83;2.30;;;;;;;30.60;30.30;101833.59;4989024;28;96963;-71
2023/06/15 11:31:01;;;;;;;2.78;2.25;;;;;;;30.59;29.94;101834.66;5005877;28;97359;-72
2023/06/15 11:33:29;;;;;;;2.95;1.90;;;;;;;30.59;30.00;101823.56;5006369;28;96982;-71